Time;durP1;ratioP1;P1;durP2;ratioP2;P2;SDS_P1;SDS_P2;PMS_P1;PMS_P2;Temp;Humidity;BMP_temperature;BMP_pressure;BME280_temperature;BME280_humidity;BME280_pressure;Samples;Min_cycle;Max_cycle;Signal;HPM_P1;HPM_P2
2022/05/19 00:01:04;;;;;;;;;;;23.60;89.80;;;;;;5030348;28;19971;-68
2022/05/19 00:03:31;;;;;;;;;;;23.60;89.80;;;;;;5030095;28;19967;-69
2022/05/19 00:05:58;;;;;;;;;;;23.50;89.80;;;;;;5032258;28;20440;-68
2022/05/19 00:08:23;;;;;;;;;;;23.50;90.00;;;;;;5032427;28;19955;-69
2022/05/19 00:10:49;;;;;;;;;;;23.50;90.10;;;;;;5030790;28;19913;-69
2022/05/19 00:13:15;;;;;;;;;;;23.40;90.10;;;;;;5029503;28;20008;-68
2022/05/19 00:15:40;;;;;;;;;;;23.50;90.10;;;;;;5012555;28;19964;-68
2022/05/19 00:18:05;;;;;;;;;;;23.50;90.10;;;;;;5012430;28;19910;-68
2022/05/19 00:20:31;;;;;;;;;;;23.50;90.10;;;;;;5012291;28;19909;-68
2022/05/19 00:22:56;;;;;;;;;;;23.40;90.10;;;;;;5012483;28;19910;-68
2022/05/19 00:25:22;;;;;;;;;;;23.40;90.10;;;;;;5022551;28;19914;-69
2022/05/19 00:27:47;;;;;;;;;;;23.40;90.20;;;;;;5032160;28;20015;-69
2022/05/19 00:30:13;;;;;;;;;;;23.40;90.20;;;;;;5031883;28;19963;-68
2022/05/19 00:32:38;;;;;;;;;;;23.40;90.20;;;;;;5032173;28;19909;-69
2022/05/19 00:35:04;;;;;;;;;;;23.40;90.30;;;;;;5028941;28;19913;-69
2022/05/19 00:37:30;;;;;;;;;;;23.40;90.30;;;;;;5030502;28;19915;-68
2022/05/19 00:39:55;;;;;;;;;;;23.40;90.30;;;;;;5019470;28;19913;-68
2022/05/19 00:45:06;;;;;;;;;;;23.30;90.40;;;;;;5012493;28;19944;-69
2022/05/19 00:47:51;;;;;;;;;;;23.30;90.30;;;;;;5013433;28;19910;-68
2022/05/19 00:50:22;;;;;;;;;;;23.30;90.40;;;;;;5011607;28;19979;-69
2022/05/19 00:52:50;;;;;;;;;;;23.20;90.40;;;;;;5012317;28;19910;-68
2022/05/19 00:55:22;;;;;;;;;;;23.20;90.50;;;;;;5012403;28;19910;-68
2022/05/19 00:57:52;;;;;;;;;;;23.20;90.50;;;;;;5013133;28;19941;-70
2022/05/19 01:00:19;;;;;;;;;;;23.20;90.60;;;;;;5011962;28;20278;-68
2022/05/19 01:02:50;;;;;;;;;;;23.10;90.60;;;;;;5077596;22;20354;-67
2022/05/19 01:05:18;;;;;;;;;;;23.10;90.70;;;;;;5094729;28;20448;-68
2022/05/19 01:07:46;;;;;;;;;;;23.10;90.70;;;;;;5095697;28;19999;-67
2022/05/19 01:10:12;;;;;;;;;;;23.10;90.70;;;;;;5095455;28;19923;-67
2022/05/19 01:12:38;;;;;;;;;;;23.10;90.60;;;;;;5096444;28;19952;-68
2022/05/19 01:15:04;;;;;;;;;;;23.10;90.60;;;;;;5096205;28;20300;-68
2022/05/19 01:17:30;;;;;;;;;;;23.10;90.70;;;;;;5096103;28;19908;-67
2022/05/19 01:19:58;;;;;;;;;;;23.10;90.70;;;;;;5093811;28;19954;-68
2022/05/19 01:22:29;;;;;;;;;;;23.10;90.70;;;;;;5095908;28;19999;-68
2022/05/19 01:24:57;;;;;;;;;;;23.10;90.70;;;;;;5095792;28;19912;-68
2022/05/19 01:27:23;;;;;;;;;;;23.10;90.70;;;;;;5095925;28;19908;-68
2022/05/19 01:29:49;;;;;;;;;;;23.00;90.70;;;;;;5093702;28;19912;-67
2022/05/19 01:32:25;;;;;;;;;;;23.00;90.80;;;;;;5095590;28;19909;-68
2022/05/19 01:34:50;;;;;;;;;;;23.00;90.90;;;;;;5095761;28;20392;-68
2022/05/19 01:37:16;;;;;;;;;;;22.90;90.90;;;;;;5095353;28;19936;-67
2022/05/19 01:39:43;;;;;;;;;;;22.90;91.00;;;;;;5093108;28;19923;-67
2022/05/19 01:42:28;;;;;;;;;;;22.90;91.00;;;;;;5093743;28;19998;-67
2022/05/19 01:44:59;;;;;;;;;;;22.90;91.10;;;;;;5095263;28;20388;-69
2022/05/19 01:47:33;;;;;;;;;;;22.80;91.00;;;;;;5095324;28;20349;-67
2022/05/19 01:50:02;;;;;;;;;;;22.80;91.10;;;;;;5093824;28;19908;-67
2022/05/19 01:52:30;;;;;;;;;;;22.80;91.00;;;;;;5095181;28;19912;-67
2022/05/19 01:55:08;;;;;;;;;;;22.80;91.10;;;;;;5095173;28;19912;-69
2022/05/19 01:57:45;;;;;;;;;;;22.70;91.40;;;;;;5095103;28;19998;-70
2022/05/19 02:00:13;;;;;;;;;;;22.70;91.60;;;;;;5094774;28;19908;-69
2022/05/19 02:02:57;;;;;;;;;;;22.70;91.50;;;;;;5093121;28;19969;-68
2022/05/19 02:05:32;;;;;;;;;;;22.60;91.50;;;;;;5094806;28;20334;-68
2022/05/19 02:07:58;;;;;;;;;;;22.60;91.70;;;;;;5094885;28;19919;-68
2022/05/19 02:10:26;;;;;;;;;;;22.60;91.70;;;;;;5094565;28;20365;-69
2022/05/19 02:12:52;;;;;;;;;;;22.50;91.80;;;;;;5093085;28;20296;-69
2022/05/19 02:15:18;;;;;;;;;;;22.50;91.70;;;;;;5094249;28;19918;-68
2022/05/19 02:17:45;;;;;;;;;;;22.50;91.80;;;;;;5094593;28;19915;-68
2022/05/19 02:20:12;;;;;;;;;;;22.50;91.90;;;;;;5094388;28;19909;-68
2022/05/19 02:22:40;;;;;;;;;;;22.40;92.00;;;;;;5091406;28;19922;-68
2022/05/19 02:25:14;;;;;;;;;;;22.40;92.00;;;;;;5094385;28;20015;-68
2022/05/19 02:27:42;;;;;;;;;;;22.40;92.00;;;;;;5094544;28;19943;-68
2022/05/19 02:30:10;;;;;;;;;;;22.40;92.10;;;;;;5094209;28;20423;-68
2022/05/19 02:32:36;;;;;;;;;;;22.50;92.00;;;;;;5093118;28;19908;-68
2022/05/19 02:35:02;;;;;;;;;;;22.50;91.90;;;;;;5093906;28;19970;-68
2022/05/19 02:37:27;;;;;;;;;;;22.50;91.80;;;;;;5092458;28;20007;-68
2022/05/19 02:39:53;;;;;;;;;;;22.50;91.80;;;;;;5093903;28;20415;-68
2022/05/19 02:42:18;;;;;;;;;;;22.60;91.80;;;;;;5094247;28;19914;-68
2022/05/19 02:44:44;;;;;;;;;;;22.60;91.80;;;;;;5094088;28;19916;-68
2022/05/19 02:47:09;;;;;;;;;;;22.60;91.70;;;;;;5092406;28;19981;-67
2022/05/19 02:49:35;;;;;;;;;;;22.60;91.60;;;;;;5092512;28;19908;-69
2022/05/19 02:52:00;;;;;;;;;;;22.60;91.70;;;;;;5093931;28;19908;-68
2022/05/19 02:54:26;;;;;;;;;;;22.50;91.70;;;;;;5093928;28;19914;-68
2022/05/19 02:56:51;;;;;;;;;;;22.60;91.80;;;;;;5092420;28;20027;-69
2022/05/19 02:59:16;;;;;;;;;;;22.50;91.80;;;;;;5076760;28;19917;-68
2022/05/19 03:01:42;;;;;;;;;;;22.60;91.70;;;;;;5073343;28;20357;-68
2022/05/19 03:04:07;;;;;;;;;;;22.60;91.70;;;;;;5073759;28;19961;-69
2022/05/19 03:06:33;;;;;;;;;;;22.60;91.70;;;;;;5073525;28;19919;-69
2022/05/19 03:08:59;;;;;;;;;;;22.60;91.50;;;;;;5074569;28;19921;-68
2022/05/19 03:11:24;;;;;;;;;;;22.60;91.60;;;;;;5089858;28;19912;-68
2022/05/19 03:13:49;;;;;;;;;;;22.60;91.60;;;;;;5093300;28;19915;-67
2022/05/19 03:16:15;;;;;;;;;;;22.60;91.60;;;;;;5093512;28;20368;-68
2022/05/19 03:18:40;;;;;;;;;;;22.70;91.70;;;;;;5091915;28;19912;-68
2022/05/19 03:21:06;;;;;;;;;;;22.70;91.60;;;;;;5093346;28;20349;-69
2022/05/19 03:23:32;;;;;;;;;;;22.70;91.40;;;;;;5093487;28;19915;-68
2022/05/19 03:25:57;;;;;;;;;;;22.70;91.50;;;;;;5092420;28;19920;-68
2022/05/19 03:28:23;;;;;;;;;;;22.70;91.80;;;;;;5093496;28;19908;-68
2022/05/19 03:30:48;;;;;;;;;;;22.70;91.50;;;;;;5075259;28;19935;-68
2022/05/19 03:33:14;;;;;;;;;;;22.70;91.60;;;;;;5073054;28;19913;-68
2022/05/19 03:35:40;;;;;;;;;;;22.70;91.60;;;;;;5073323;28;19909;-68
2022/05/19 03:38:06;;;;;;;;;;;22.70;91.50;;;;;;5073074;28;19998;-67
2022/05/19 03:40:32;;;;;;;;;;;22.70;91.50;;;;;;5074546;28;19935;-68
2022/05/19 03:42:57;;;;;;;;;;;22.70;91.50;;;;;;5073009;28;19916;-68
2022/05/19 03:45:23;;;;;;;;;;;22.70;91.50;;;;;;5072127;28;20348;-68
2022/05/19 03:47:48;;;;;;;;;;;22.70;91.50;;;;;;5073156;28;19908;-68
2022/05/19 03:50:14;;;;;;;;;;;22.70;91.60;;;;;;5074263;28;19955;-68
2022/05/19 03:52:40;;;;;;;;;;;22.70;91.60;;;;;;5073186;28;20353;-68
2022/05/19 03:55:05;;;;;;;;;;;22.60;91.40;;;;;;5073272;28;20438;-69
2022/05/19 03:57:31;;;;;;;;;;;22.50;91.60;;;;;;5073037;28;19909;-68
2022/05/19 03:59:56;;;;;;;;;;;22.40;91.70;;;;;;5072782;28;19913;-68
2022/05/19 04:02:22;;;;;;;;;;;22.40;91.90;;;;;;5074156;28;19916;-68
2022/05/19 04:04:47;;;;;;;;;;;22.30;91.90;;;;;;5076318;28;19923;-69
2022/05/19 04:07:13;;;;;;;;;;;22.30;91.90;;;;;;5078695;28;20003;-69
2022/05/19 04:09:38;;;;;;;;;;;22.20;92.00;;;;;;5078652;28;19947;-68
2022/05/19 04:12:04;;;;;;;;;;;22.20;92.20;;;;;;5082123;28;19951;-69
2022/05/19 04:14:29;;;;;;;;;;;22.20;92.20;;;;;;5094359;28;19908;-68
2022/05/19 04:16:55;;;;;;;;;;;22.20;92.20;;;;;;5093401;28;20335;-69
2022/05/19 04:19:20;;;;;;;;;;;22.10;92.30;;;;;;5097295;28;20318;-69
2022/05/19 04:21:46;;;;;;;;;;;22.20;92.30;;;;;;5104638;28;19912;-69
2022/05/19 04:24:11;;;;;;;;;;;22.10;92.40;;;;;;5089068;28;19912;-67
2022/05/19 04:26:37;;;;;;;;;;;22.10;92.50;;;;;;5085264;28;19917;-68
2022/05/19 04:29:02;;;;;;;;;;;22.10;92.60;;;;;;5084405;28;19968;-68
2022/05/19 04:31:28;;;;;;;;;;;22.10;92.70;;;;;;5078775;28;20327;-68
2022/05/19 04:33:53;;;;;;;;;;;22.00;92.70;;;;;;5073971;28;19913;-68
2022/05/19 04:36:18;;;;;;;;;;;22.00;92.70;;;;;;5073498;28;19913;-68
2022/05/19 04:38:44;;;;;;;;;;;22.00;92.70;;;;;;5072594;28;19915;-68
2022/05/19 04:41:09;;;;;;;;;;;22.00;92.80;;;;;;5072085;28;19908;-68
2022/05/19 04:43:35;;;;;;;;;;;22.00;92.80;;;;;;5072162;28;20391;-68
2022/05/19 04:46:00;;;;;;;;;;;22.10;92.70;;;;;;5072129;28;19912;-68
2022/05/19 04:48:26;;;;;;;;;;;22.10;92.70;;;;;;5073172;28;20340;-68
2022/05/19 04:50:56;;;;;;;;;;;22.10;92.70;;;;;;5071870;28;20373;-68
2022/05/19 04:53:21;;;;;;;;;;;22.10;92.60;;;;;;5072053;28;19908;-69
2022/05/19 04:55:47;;;;;;;;;;;22.20;92.70;;;;;;5072280;28;20377;-68
2022/05/19 04:58:12;;;;;;;;;;;22.10;92.70;;;;;;5076441;28;20297;-67
2022/05/19 05:00:38;;;;;;;;;;;22.10;92.60;;;;;;5091507;28;20381;-68
2022/05/19 05:03:04;;;;;;;;;;;22.20;92.60;;;;;;5092114;28;20487;-70
2022/05/19 05:05:29;;;;;;;;;;;22.20;92.60;;;;;;5092111;28;19912;-69
2022/05/19 05:07:55;;;;;;;;;;;22.30;92.50;;;;;;5089324;28;19912;-68
2022/05/19 05:10:20;;;;;;;;;;;22.30;92.60;;;;;;5090511;28;20288;-69
2022/05/19 05:12:45;;;;;;;;;;;22.30;92.50;;;;;;5092021;28;20445;-69
2022/05/19 05:15:11;;;;;;;;;;;22.30;92.50;;;;;;5091723;28;20069;-68
2022/05/19 05:17:37;;;;;;;;;;;22.40;92.50;;;;;;5092088;28;19912;-68
2022/05/19 05:20:03;;;;;;;;;;;22.40;92.50;;;;;;5088629;28;19919;-69
2022/05/19 05:22:30;;;;;;;;;;;22.40;92.40;;;;;;5091895;28;20372;-68
2022/05/19 05:24:56;;;;;;;;;;;22.40;92.40;;;;;;5092188;28;19909;-68
2022/05/19 05:27:21;;;;;;;;;;;22.50;92.40;;;;;;5091959;28;19947;-69
2022/05/19 05:29:47;;;;;;;;;;;22.50;92.20;;;;;;5083557;28;19967;-67
2022/05/19 05:32:12;;;;;;;;;;;22.50;92.20;;;;;;5075732;28;19943;-69
2022/05/19 05:34:38;;;;;;;;;;;22.60;92.10;;;;;;5071605;28;19916;-69
2022/05/19 05:37:04;;;;;;;;;;;22.60;92.20;;;;;;5081606;28;19915;-68
2022/05/19 05:39:29;;;;;;;;;;;22.60;92.20;;;;;;5089496;28;19944;-69
2022/05/19 05:41:55;;;;;;;;;;;22.70;92.30;;;;;;5088864;28;19919;-69
2022/05/19 05:44:20;;;;;;;;;;;22.60;92.20;;;;;;5091628;28;19952;-69
2022/05/19 05:46:46;;;;;;;;;;;22.70;92.30;;;;;;5091554;28;20006;-68
2022/05/19 05:49:11;;;;;;;;;;;22.70;92.20;;;;;;5092712;28;19908;-69
2022/05/19 05:51:36;;;;;;;;;;;22.60;92.30;;;;;;5093550;28;19923;-69
2022/05/19 05:54:02;;;;;;;;;;;22.70;92.20;;;;;;5093833;28;20437;-70
2022/05/19 05:56:27;;;;;;;;;;;22.80;91.90;;;;;;5102095;28;19912;-68
2022/05/19 05:58:53;;;;;;;;;;;22.90;91.70;;;;;;5097152;28;20030;-68
2022/05/19 06:01:19;;;;;;;;;;;23.00;91.50;;;;;;5091643;28;20007;-68
2022/05/19 06:03:45;;;;;;;;;;;23.20;91.50;;;;;;5104486;28;19924;-68
2022/05/19 06:06:11;;;;;;;;;;;23.20;91.40;;;;;;5100761;28;19916;-68
2022/05/19 06:08:36;;;;;;;;;;;23.30;91.30;;;;;;5105801;28;20329;-69
2022/05/19 06:11:02;;;;;;;;;;;23.30;91.00;;;;;;5108682;27;20501;-67
2022/05/19 06:13:28;;;;;;;;;;;23.30;90.90;;;;;;5074165;28;19919;-68
2022/05/19 06:15:54;;;;;;;;;;;23.20;90.90;;;;;;5103422;27;19915;-67
2022/05/19 06:18:19;;;;;;;;;;;23.30;91.10;;;;;;5113739;28;19930;-68
2022/05/19 06:20:45;;;;;;;;;;;23.20;91.10;;;;;;5113147;27;19915;-68
2022/05/19 06:23:11;;;;;;;;;;;23.30;91.20;;;;;;5090399;28;19909;-67
2022/05/19 06:25:37;;;;;;;;;;;23.30;91.10;;;;;;5087168;28;19924;-69
2022/05/19 06:28:02;;;;;;;;;;;23.30;91.00;;;;;;5093155;28;19912;-67
2022/05/19 06:30:29;;;;;;;;;;;23.30;91.00;;;;;;5089866;28;20165;-67
2022/05/19 06:32:55;;;;;;;;;;;23.30;91.10;;;;;;5090499;28;19916;-69
2022/05/19 06:35:22;;;;;;;;;;;23.40;91.10;;;;;;5072628;28;19991;-68
2022/05/19 06:37:47;;;;;;;;;;;23.40;91.10;;;;;;5084340;28;19927;-67
2022/05/19 06:40:15;;;;;;;;;;;23.40;91.10;;;;;;5104919;28;19939;-68
2022/05/19 06:42:40;;;;;;;;;;;23.60;91.30;;;;;;5112348;27;19912;-67
2022/05/19 06:45:06;;;;;;;;;;;23.70;91.30;;;;;;5101577;28;19912;-67
2022/05/19 06:47:32;;;;;;;;;;;23.80;91.30;;;;;;5098987;28;19935;-68
2022/05/19 06:49:58;;;;;;;;;;;24.00;91.10;;;;;;5101842;28;19919;-67
2022/05/19 06:52:25;;;;;;;;;;;24.10;90.80;;;;;;5103802;27;19908;-67
2022/05/19 06:54:52;;;;;;;;;;;24.20;90.60;;;;;;5113942;28;19947;-68
2022/05/19 06:57:18;;;;;;;;;;;24.30;90.30;;;;;;5103055;28;20567;-69
2022/05/19 06:59:43;;;;;;;;;;;24.20;90.10;;;;;;5072449;28;20045;-69
2022/05/19 07:02:09;;;;;;;;;;;24.30;90.30;;;;;;5073031;28;19924;-68
2022/05/19 07:04:35;;;;;;;;;;;24.40;90.30;;;;;;5073111;28;20326;-70
2022/05/19 07:07:02;;;;;;;;;;;24.50;90.20;;;;;;5101949;28;19983;-68
2022/05/19 07:09:27;;;;;;;;;;;24.40;90.10;;;;;;5078400;28;20538;-68
2022/05/19 07:11:53;;;;;;;;;;;24.40;89.80;;;;;;5081188;28;19916;-68
2022/05/19 07:14:19;;;;;;;;;;;24.40;90.10;;;;;;5091903;28;19909;-69
2022/05/19 07:16:46;;;;;;;;;;;24.40;90.00;;;;;;5093388;28;19908;-68
2022/05/19 07:21:56;;;;;;;;;;;24.40;90.20;;;;;;5093233;28;20418;-68
2022/05/19 07:24:21;;;;;;;;;;;24.40;90.20;;;;;;5093097;28;19909;-68
2022/05/19 07:26:48;;;;;;;;;;;24.40;90.10;;;;;;5092528;28;20514;-68
2022/05/19 07:29:14;;;;;;;;;;;24.30;90.30;;;;;;5089025;28;19920;-69
2022/05/19 07:31:40;;;;;;;;;;;24.30;90.40;;;;;;5073264;28;20499;-68
2022/05/19 07:34:06;;;;;;;;;;;24.40;90.50;;;;;;5072399;28;19991;-69
2022/05/19 07:36:32;;;;;;;;;;;24.50;90.50;;;;;;5072803;28;20377;-68
2022/05/19 07:38:59;;;;;;;;;;;24.50;90.60;;;;;;5072405;28;19998;-68
2022/05/19 07:41:29;;;;;;;;;;;24.50;90.80;;;;;;5073057;28;20285;-68
2022/05/19 07:43:55;;;;;;;;;;;24.50;90.90;;;;;;5072528;28;19915;-68
2022/05/19 07:46:21;;;;;;;;;;;24.70;90.70;;;;;;5072763;28;19912;-68
2022/05/19 07:48:46;;;;;;;;;;;24.90;90.40;;;;;;5072642;28;20008;-68
2022/05/19 07:51:12;;;;;;;;;;;25.10;90.20;;;;;;5067095;28;19920;-68
2022/05/19 07:53:38;;;;;;;;;;;25.20;90.10;;;;;;5075876;28;20399;-68
2022/05/19 07:56:03;;;;;;;;;;;25.20;89.70;;;;;;5080066;28;20400;-68
2022/05/19 07:58:31;;;;;;;;;;;25.30;89.70;;;;;;5101305;28;19966;-69
2022/05/19 08:00:58;;;;;;;;;;;25.40;89.80;;;;;;5091562;28;19989;-69
2022/05/19 08:03:24;;;;;;;;;;;25.50;89.30;;;;;;5098056;28;19919;-67
2022/05/19 08:05:50;;;;;;;;;;;25.60;88.80;;;;;;5096611;28;19961;-68
2022/05/19 08:08:16;;;;;;;;;;;25.70;88.60;;;;;;5093713;28;20368;-68
2022/05/19 08:10:41;;;;;;;;;;;25.60;88.50;;;;;;5100098;28;20007;-68
2022/05/19 08:15:50;;;;;;;;;;;25.80;89.00;;;;;;5090970;28;19965;-66
2022/05/19 08:18:20;;;;;;;;;;;25.80;89.10;;;;;;5103217;28;19912;-67
2022/05/19 08:21:06;;;;;;;;;;;25.90;88.40;;;;;;5096997;28;20381;-68
2022/05/19 08:23:33;;;;;;;;;;;26.00;88.10;;;;;;5086832;28;19938;-67
2022/05/19 08:26:00;;;;;;;;;;;26.10;88.10;;;;;;5105011;28;19920;-68
2022/05/19 08:28:29;;;;;;;;;;;26.20;87.90;;;;;;5093946;28;19911;-67
2022/05/19 08:30:59;;;;;;;;;;;26.30;87.60;;;;;;5098275;28;20265;-68
2022/05/19 08:33:25;;;;;;;;;;;26.30;87.20;;;;;;5087152;28;19955;-68
2022/05/19 08:35:51;;;;;;;;;;;26.30;86.60;;;;;;5101058;28;19955;-68
2022/05/19 08:38:17;;;;;;;;;;;26.40;86.90;;;;;;5088708;28;19916;-68
2022/05/19 08:40:44;;;;;;;;;;;26.40;87.10;;;;;;5096603;28;19908;-67
2022/05/19 08:43:11;;;;;;;;;;;26.40;87.10;;;;;;5095588;28;19963;-67
2022/05/19 08:45:42;;;;;;;;;;;26.50;87.20;;;;;;5104266;28;19919;-68
2022/05/19 08:48:12;;;;;;;;;;;26.40;86.70;;;;;;5078446;28;19919;-66
2022/05/19 08:50:37;;;;;;;;;;;26.40;86.40;;;;;;5100242;28;19959;-67
2022/05/19 08:53:03;;;;;;;;;;;26.40;86.70;;;;;;5083196;28;19971;-67
2022/05/19 08:55:29;;;;;;;;;;;26.40;87.60;;;;;;5098281;28;20428;-69
2022/05/19 08:58:02;;;;;;;;;;;26.40;86.90;;;;;;5091742;28;19916;-68
2022/05/19 09:00:50;;;;;;;;;;;26.40;86.60;;;;;;5101258;28;19996;-69
2022/05/19 09:03:22;;;;;;;;;;;26.40;86.60;;;;;;5096327;28;20387;-68
2022/05/19 09:05:57;;;;;;;;;;;26.30;87.20;;;;;;5099404;28;19924;-68
2022/05/19 09:08:25;;;;;;;;;;;26.30;88.00;;;;;;5101296;28;19958;-70
2022/05/19 09:10:55;;;;;;;;;;;26.20;88.30;;;;;;5093508;28;20003;-69
2022/05/19 09:13:23;;;;;;;;;;;26.30;88.20;;;;;;5088927;28;19914;-68
2022/05/19 09:15:49;;;;;;;;;;;26.40;88.30;;;;;;5073750;28;20583;-69
2022/05/19 09:18:16;;;;;;;;;;;26.40;88.40;;;;;;5067469;28;19912;-70
2022/05/19 09:20:48;;;;;;;;;;;26.50;88.50;;;;;;5069579;28;19920;-67
2022/05/19 09:23:14;;;;;;;;;;;26.50;88.40;;;;;;5069922;28;19916;-67
2022/05/19 09:26:00;;;;;;;;;;;26.60;88.40;;;;;;5073197;28;19917;-67
2022/05/19 09:28:26;;;;;;;;;;;26.60;88.00;;;;;;5074342;28;19909;-67
2022/05/19 09:30:54;;;;;;;;;;;26.70;87.90;;;;;;5075401;28;20118;-67
2022/05/19 09:33:21;;;;;;;;;;;26.70;88.00;;;;;;5075509;28;19909;-70
2022/05/19 09:35:50;;;;;;;;;;;26.60;87.50;;;;;;5075744;28;20342;-69
2022/05/19 09:38:25;;;;;;;;;;;26.60;87.70;;;;;;5098038;22;20365;-71
2022/05/19 09:40:53;;;;;;;;;;;26.60;88.50;;;;;;5032062;28;19921;-73
2022/05/19 09:43:30;;;;;;;;;;;26.70;88.70;;;;;;5034108;28;19909;-72
2022/05/19 09:46:09;;;;;;;;;;;26.80;89.00;;;;;;5035731;28;20354;-72
2022/05/19 09:48:36;;;;;;;;;;;26.90;88.50;;;;;;5035264;28;20339;-72
2022/05/19 09:51:03;;;;;;;;;;;26.90;87.80;;;;;;5034616;28;19913;-71
2022/05/19 09:53:30;;;;;;;;;;;26.90;87.30;;;;;;5035212;28;19917;-72
2022/05/19 09:55:56;;;;;;;;;;;27.00;86.80;;;;;;5034810;28;19910;-72
2022/05/19 09:58:24;;;;;;;;;;;27.00;86.20;;;;;;5034659;28;20015;-71
2022/05/19 10:00:51;;;;;;;;;;;27.00;86.50;;;;;;5033667;28;19917;-71
2022/05/19 10:03:25;;;;;;;;;;;27.00;86.80;;;;;;5034354;28;20051;-71
2022/05/19 10:05:53;;;;;;;;;;;27.00;87.20;;;;;;5038922;28;20033;-71
2022/05/19 10:08:23;;;;;;;;;;;27.10;87.30;;;;;;5054318;28;20254;-72
2022/05/19 10:10:55;;;;;;;;;;;27.20;86.90;;;;;;5054339;28;19916;-72
2022/05/19 10:13:24;;;;;;;;;;;27.30;86.70;;;;;;5054401;28;19909;-72
2022/05/19 10:15:55;;;;;;;;;;;27.30;86.70;;;;;;5053855;28;19959;-72
2022/05/19 10:18:26;;;;;;;;;;;27.50;86.60;;;;;;5054379;28;19909;-72
2022/05/19 10:20:59;;;;;;;;;;;27.60;86.40;;;;;;5053757;28;19915;-72
2022/05/19 10:23:43;;;;;;;;;;;27.70;86.30;;;;;;5053886;28;19909;-73
2022/05/19 10:26:20;;;;;;;;;;;27.80;85.80;;;;;;5053998;28;19919;-71
2022/05/19 10:31:46;;;;;;;;;;;27.90;84.70;;;;;;5054181;28;20431;-72
2022/05/19 10:34:11;;;;;;;;;;;27.90;84.20;;;;;;5054042;28;19932;-71
2022/05/19 10:36:57;;;;;;;;;;;27.80;84.10;;;;;;5053888;28;19971;-71
2022/05/19 10:39:42;;;;;;;;;;;27.80;84.40;;;;;;5053320;28;20465;-71
2022/05/19 10:42:10;;;;;;;;;;;27.80;84.60;;;;;;5053902;28;19909;-71
2022/05/19 10:44:39;;;;;;;;;;;27.70;84.30;;;;;;5053800;28;20350;-72
2022/05/19 10:47:12;;;;;;;;;;;27.70;84.40;;;;;;5053750;28;19989;-71
2022/05/19 10:49:59;;;;;;;;;;;27.60;84.80;;;;;;5053005;28;20003;-72
2022/05/19 10:52:29;;;;;;;;;;;27.60;85.50;;;;;;5053488;28;19909;-71
2022/05/19 10:54:54;;;;;;;;;;;27.50;85.30;;;;;;5053445;28;20012;-71
2022/05/19 10:57:36;;;;;;;;;;;27.50;85.30;;;;;;5053694;28;19970;-71
2022/05/19 11:00:17;;;;;;;;;;;27.50;84.80;;;;;;5055584;28;19942;-72
2022/05/19 11:02:54;;;;;;;;;;;27.50;84.30;;;;;;5052015;28;19909;-71
2022/05/19 11:05:23;;;;;;;;;;;27.60;84.60;;;;;;5053472;28;19919;-71
2022/05/19 11:07:55;;;;;;;;;;;27.70;84.40;;;;;;5033427;28;19909;-71
2022/05/19 11:10:24;;;;;;;;;;;27.70;84.30;;;;;;5032913;28;19913;-71
2022/05/19 11:12:58;;;;;;;;;;;27.80;83.80;;;;;;5033619;28;19932;-72
2022/05/19 11:15:29;;;;;;;;;;;27.90;84.20;;;;;;5033185;28;19949;-72
2022/05/19 11:17:56;;;;;;;;;;;28.00;84.30;;;;;;5033584;28;19909;-72
2022/05/19 11:20:24;;;;;;;;;;;28.20;83.80;;;;;;5032642;28;20344;-73
2022/05/19 11:23:02;;;;;;;;;;;28.40;84.50;;;;;;5033408;28;19909;-72
2022/05/19 11:28:24;;;;;;;;;;;28.70;83.00;;;;;;5033798;28;20339;-72
2022/05/19 11:30:53;;;;;;;;;;;28.70;82.60;;;;;;5033280;28;20390;-72
2022/05/19 11:33:23;;;;;;;;;;;28.70;82.20;;;;;;5033714;28;19916;-71
2022/05/19 11:35:55;;;;;;;;;;;28.70;80.90;;;;;;5033457;28;19909;-73
2022/05/19 11:38:26;;;;;;;;;;;28.70;80.40;;;;;;5032602;28;20041;-72
2022/05/19 11:41:05;;;;;;;;;;;28.70;80.40;;;;;;5032690;28;19955;-72
2022/05/19 11:43:34;;;;;;;;;;;28.80;80.10;;;;;;5032811;28;19909;-72
2022/05/19 11:46:00;;;;;;;;;;;28.80;79.70;;;;;;5027154;28;19913;-72
2022/05/19 11:57:17;;;;;;;;;;;28.80;78.20;;;;;;5026938;28;19971;-73
2022/05/19 11:59:50;;;;;;;;;;;28.70;78.50;;;;;;5038535;28;19913;-73
2022/05/19 12:02:18;;;;;;;;;;;28.70;78.40;;;;;;5037645;28;19936;-72
2022/05/19 12:04:44;;;;;;;;;;;28.80;78.60;;;;;;5031476;28;19941;-72
2022/05/19 12:07:13;;;;;;;;;;;28.70;78.60;;;;;;5046008;28;19944;-72
2022/05/19 12:09:47;;;;;;;;;;;28.50;79.00;;;;;;5050910;28;19909;-72
2022/05/19 12:12:16;;;;;;;;;;;28.50;78.70;;;;;;5051255;28;19909;-72
2022/05/19 12:14:48;;;;;;;;;;;28.50;78.80;;;;;;5034092;28;20044;-72
2022/05/19 12:17:30;;;;;;;;;;;28.40;78.80;;;;;;5031125;28;19909;-73
2022/05/19 12:19:58;;;;;;;;;;;28.50;79.40;;;;;;5031869;28;19909;-73
2022/05/19 12:22:23;;;;;;;;;;;28.50;79.90;;;;;;5032405;28;20011;-72
2022/05/19 12:24:52;;;;;;;;;;;28.40;79.50;;;;;;5032422;28;19948;-72
2022/05/19 12:27:19;;;;;;;;;;;28.40;80.50;;;;;;5033098;28;19967;-72
2022/05/19 12:29:48;;;;;;;;;;;28.30;81.40;;;;;;5032877;28;20319;-72
2022/05/19 12:32:15;;;;;;;;;;;28.20;82.60;;;;;;5032170;28;19913;-72
2022/05/19 12:34:52;;;;;;;;;;;28.10;82.70;;;;;;5030950;28;19920;-71
2022/05/19 12:37:38;;;;;;;;;;;28.10;83.20;;;;;;5032193;28;19975;-71
2022/05/19 12:40:22;;;;;;;;;;;28.00;84.10;;;;;;5031867;28;19928;-72
2022/05/19 12:42:48;;;;;;;;;;;28.00;84.80;;;;;;5032216;28;19916;-71
2022/05/19 12:45:18;;;;;;;;;;;28.00;84.70;;;;;;5031919;28;20282;-72
2022/05/19 12:47:55;;;;;;;;;;;28.00;84.30;;;;;;5032240;28;19909;-72
2022/05/19 12:50:22;;;;;;;;;;;28.00;84.50;;;;;;5031832;28;20275;-73
2022/05/19 12:53:09;;;;;;;;;;;28.00;85.00;;;;;;5033176;28;19916;-72
2022/05/19 12:55:42;;;;;;;;;;;28.20;85.20;;;;;;5032444;28;19916;-72
2022/05/19 12:58:26;;;;;;;;;;;28.20;84.60;;;;;;5033571;28;20431;-72
2022/05/19 13:00:52;;;;;;;;;;;28.30;84.30;;;;;;5036039;28;19916;-71
2022/05/19 13:03:18;;;;;;;;;;;28.30;84.10;;;;;;5036356;28;19910;-72
2022/05/19 13:05:58;;;;;;;;;;;28.50;84.00;;;;;;5039533;28;19920;-72
2022/05/19 13:08:52;;;;;;;;;;;28.60;84.00;;;;;;5055766;28;20366;-72
2022/05/19 13:11:19;;;;;;;;;;;28.70;83.80;;;;;;5055619;28;19909;-72
2022/05/19 13:13:54;;;;;;;;;;;28.80;83.40;;;;;;5056046;28;19909;-72
2022/05/19 13:16:28;;;;;;;;;;;28.70;82.90;;;;;;5055978;28;19909;-71
2022/05/19 13:18:55;;;;;;;;;;;28.70;82.40;;;;;;5055021;28;19920;-72
2022/05/19 13:21:34;;;;;;;;;;;28.60;82.50;;;;;;5054897;28;20022;-72
2022/05/19 13:24:06;;;;;;;;;;;28.60;82.30;;;;;;5055017;28;19958;-72
2022/05/19 13:26:33;;;;;;;;;;;28.60;82.80;;;;;;5054808;28;20066;-71
2022/05/19 13:32:00;;;;;;;;;;;28.30;83.70;;;;;;5055085;28;20467;-70
2022/05/19 13:34:38;;;;;;;;;;;28.10;84.40;;;;;;5054778;28;19913;-72
2022/05/19 13:37:06;;;;;;;;;;;27.70;84.30;;;;;;5054879;28;19948;-72
2022/05/19 13:39:31;;;;;;;;;;;26.70;85.60;;;;;;5052925;28;19924;-71
2022/05/19 13:42:02;;;;;;;;;;;25.60;89.30;;;;;;5053245;28;19909;-72
2022/05/19 13:44:28;;;;;;;;;;;25.00;91.30;;;;;;5054399;28;19909;-72
2022/05/19 13:46:54;;;;;;;;;;;24.40;99.90;;;;;;5057444;28;19920;-80
2022/05/19 13:49:21;;;;;;;;;;;22.10;99.90;;;;;;5053664;28;19912;-76
2022/05/19 13:51:48;;;;;;;;;;;21.20;99.90;;;;;;5054310;28;20043;-76
2022/05/19 13:54:29;;;;;;;;;;;21.00;99.90;;;;;;5052935;28;19920;-75
2022/05/19 13:56:59;;;;;;;;;;;20.70;99.90;;;;;;5054035;28;19932;-76
2022/05/19 13:59:29;;;;;;;;;;;20.60;99.90;;;;;;5054022;28;20293;-76
2022/05/19 14:01:59;;;;;;;;;;;20.10;99.90;;;;;;5053582;28;20285;-76
2022/05/19 14:04:25;;;;;;;;;;;19.80;99.90;;;;;;5053751;28;19920;-76
2022/05/19 14:06:51;;;;;;;;;;;19.90;99.90;;;;;;5041024;28;19916;-76
2022/05/19 14:09:25;;;;;;;;;;;20.00;99.90;;;;;;5032752;28;19959;-76
2022/05/19 14:12:07;;;;;;;;;;;19.60;99.90;;;;;;5032579;28;19913;-76
2022/05/19 14:14:32;;;;;;;;;;;19.60;99.90;;;;;;5048717;28;19948;-76
2022/05/19 14:16:58;;;;;;;;;;;19.80;99.90;;;;;;5032442;28;20010;-76
2022/05/19 14:19:31;;;;;;;;;;;19.90;99.90;;;;;;5033227;28;19909;-76
2022/05/19 14:21:57;;;;;;;;;;;20.10;99.90;;;;;;5030771;28;19948;-76
2022/05/19 14:24:22;;;;;;;;;;;20.20;99.90;;;;;;5033505;28;20386;-75
2022/05/19 14:26:52;;;;;;;;;;;20.20;99.90;;;;;;5018796;28;19960;-74
2022/05/19 14:29:19;;;;;;;;;;;20.30;99.90;;;;;;5023490;28;19940;-73
2022/05/19 14:31:44;;;;;;;;;;;20.40;99.90;;;;;;5031181;28;19920;-71
2022/05/19 14:34:14;;;;;;;;;;;20.20;99.90;;;;;;5041736;28;19933;-70
2022/05/19 14:36:50;;;;;;;;;;;20.20;99.90;;;;;;5019384;28;19924;-70
2022/05/19 14:39:19;;;;;;;;;;;20.10;99.90;;;;;;5021036;28;20395;-69
2022/05/19 14:44:31;;;;;;;;;;;19.40;99.90;;;;;;5041220;28;20204;-69
2022/05/19 14:47:02;;;;;;;;;;;19.60;99.90;;;;;;5038387;28;19921;-69
2022/05/19 14:49:30;;;;;;;;;;;19.90;99.90;;;;;;5034845;28;19918;-69
2022/05/19 14:51:56;;;;;;;;;;;20.20;99.90;;;;;;5034335;28;20696;-70